createdAt,value
2019-03-03T00:01:30.662Z,7.25
2019-03-03T00:03:57.229Z,7.42
2019-03-03T00:06:23.705Z,6.87
2019-03-03T00:08:50.143Z,6.30
2019-03-03T00:11:19.467Z,7.78
2019-03-03T00:13:45.901Z,6.67
2019-03-03T00:16:12.317Z,7.00
2019-03-03T00:18:38.738Z,7.55
2019-03-03T00:21:05.185Z,6.42
2019-03-03T00:23:31.637Z,5.53
2019-03-03T00:25:58.058Z,7.47
2019-03-03T00:28:24.535Z,7.08
2019-03-03T00:30:50.963Z,6.90
2019-03-03T00:33:18.481Z,7.03
2019-03-03T00:35:44.906Z,5.42
2019-03-03T00:38:19.423Z,5.17
2019-03-03T00:40:56.945Z,6.40
2019-03-03T00:43:31.326Z,6.10
2019-03-03T00:46:02.549Z,7.05
2019-03-03T00:48:36.823Z,6.62
2019-03-03T00:51:14.165Z,5.50
2019-03-03T00:53:42.505Z,5.90
2019-03-03T00:56:13.771Z,5.45
2019-03-03T00:58:45.021Z,4.87
2019-03-03T01:01:32.619Z,5.75
2019-03-03T01:04:07.075Z,4.75
2019-03-03T01:06:44.499Z,5.50
2019-03-03T01:09:21.002Z,5.62
2019-03-03T01:11:52.246Z,5.45
2019-03-03T01:14:20.636Z,4.62
2019-03-03T01:17:01.261Z,4.85
2019-03-03T01:19:37.863Z,4.72
2019-03-03T01:22:06.237Z,5.47
2019-03-03T01:24:34.632Z,5.40
2019-03-03T01:27:01.065Z,6.15
2019-03-03T01:29:27.515Z,4.97
2019-03-03T01:31:53.934Z,5.37
2019-03-03T01:34:20.366Z,6.08
2019-03-03T01:36:46.795Z,5.72
2019-03-03T01:39:13.839Z,5.12
2019-03-03T01:41:40.269Z,5.05
2019-03-03T01:44:06.690Z,5.42
2019-03-03T01:46:33.131Z,6.10
2019-03-03T01:48:59.559Z,6.45
2019-03-03T01:51:25.985Z,5.50
2019-03-03T01:53:52.405Z,5.55
2019-03-03T01:56:18.839Z,5.35
2019-03-03T01:58:45.259Z,5.72
2019-03-03T02:01:11.706Z,6.12
2019-03-03T02:03:38.235Z,6.37
2019-03-03T02:06:06.571Z,5.22
2019-03-03T02:08:33.001Z,6.08
2019-03-03T02:10:59.417Z,5.30
2019-03-03T02:13:25.855Z,6.20
2019-03-03T02:15:52.340Z,5.65
2019-03-03T02:18:18.758Z,7.12
2019-03-03T02:20:45.198Z,5.50
2019-03-03T02:23:11.627Z,5.95
2019-03-03T02:25:38.059Z,5.72
2019-03-03T02:28:04.510Z,5.40
2019-03-03T02:30:30.947Z,5.90
2019-03-03T02:32:57.416Z,6.72
2019-03-03T02:35:23.905Z,6.53
2019-03-03T02:37:50.319Z,7.40
2019-03-03T02:40:17.251Z,7.20
2019-03-03T02:42:43.690Z,6.70
2019-03-03T02:45:11.114Z,6.90
2019-03-03T02:47:37.563Z,7.67
2019-03-03T02:50:05.533Z,8.08
2019-03-03T02:52:31.967Z,7.97
2019-03-03T02:54:58.399Z,8.70
2019-03-03T02:57:24.827Z,9.10
2019-03-03T02:59:51.255Z,9.73
2019-03-03T03:02:19.584Z,9.25
2019-03-03T03:04:47.360Z,9.78
2019-03-03T03:07:24.628Z,8.23
2019-03-03T03:09:55.872Z,8.65
2019-03-03T03:12:24.194Z,10.03
2019-03-03T03:15:01.727Z,9.55
2019-03-03T03:17:35.974Z,10.15
2019-03-03T03:20:16.132Z,10.27
2019-03-03T03:22:53.611Z,11.45
2019-03-03T03:25:21.930Z,9.93
2019-03-03T03:27:53.203Z,10.18
2019-03-03T03:30:24.423Z,12.25
2019-03-03T03:32:58.693Z,11.03
2019-03-03T03:35:45.170Z,11.48
2019-03-03T03:38:13.513Z,11.05
2019-03-03T03:40:50.916Z,14.47
2019-03-03T03:43:25.168Z,12.40
2019-03-03T03:45:53.485Z,12.73
2019-03-03T03:48:40.327Z,12.63
2019-03-03T03:51:25.351Z,16.07
2019-03-03T03:53:59.622Z,13.35
2019-03-03T03:56:30.968Z,14.85
2019-03-03T03:58:59.296Z,13.65
2019-03-03T04:01:30.315Z,14.43
2019-03-03T04:04:00.752Z,16.37
2019-03-03T04:06:38.215Z,14.25
2019-03-03T04:09:07.844Z,16.12
2019-03-03T04:11:48.181Z,14.23
2019-03-03T04:14:18.134Z,14.60
2019-03-03T04:16:46.476Z,14.58
2019-03-03T04:19:14.824Z,15.03
2019-03-03T04:21:46.315Z,14.55
2019-03-03T04:24:23.712Z,15.95
2019-03-03T04:26:58.186Z,16.23
2019-03-03T04:29:29.402Z,15.38
2019-03-03T04:31:57.727Z,16.35
2019-03-03T04:34:35.265Z,15.35
2019-03-03T04:37:09.846Z,13.68
2019-03-03T04:39:47.451Z,16.60
2019-03-03T04:42:15.811Z,14.38
2019-03-03T04:45:00.946Z,15.13
2019-03-03T04:47:32.384Z,15.50
2019-03-03T04:50:09.833Z,15.75
2019-03-03T04:52:53.450Z,15.32
2019-03-03T04:55:30.751Z,13.93
2019-03-03T04:58:01.959Z,15.80
2019-03-03T05:00:47.234Z,13.18
2019-03-03T05:03:24.177Z,14.35
2019-03-03T05:06:09.296Z,16.00
2019-03-03T05:08:54.358Z,14.90
2019-03-03T05:11:39.503Z,15.55
2019-03-03T05:14:07.838Z,15.20
2019-03-03T05:16:36.173Z,16.27
2019-03-03T05:19:04.504Z,15.95
2019-03-03T05:21:31.002Z,15.25
2019-03-03T05:23:57.528Z,15.90
2019-03-03T05:26:23.950Z,15.88
2019-03-03T05:28:50.414Z,16.40
2019-03-03T05:31:16.851Z,15.45
2019-03-03T05:33:43.280Z,16.00
2019-03-03T05:36:09.713Z,16.00
2019-03-03T05:38:36.142Z,14.15
2019-03-03T05:41:02.586Z,15.03
2019-03-03T05:43:29.010Z,15.35
2019-03-03T05:45:55.441Z,14.47
2019-03-03T05:48:21.867Z,15.60
2019-03-03T05:50:48.306Z,13.40
2019-03-03T05:53:14.731Z,14.05
2019-03-03T05:55:41.178Z,13.83
2019-03-03T05:58:07.604Z,14.53
2019-03-03T06:00:34.018Z,14.00
2019-03-03T06:03:00.455Z,15.10
2019-03-03T06:05:26.881Z,12.68
2019-03-03T06:07:53.318Z,11.57
2019-03-03T06:10:19.742Z,13.00
2019-03-03T06:12:48.987Z,12.93
2019-03-03T06:15:15.409Z,12.90
2019-03-03T06:17:41.834Z,11.88
2019-03-03T06:20:09.275Z,12.25
2019-03-03T06:22:35.697Z,13.43
2019-03-03T06:25:02.831Z,12.65
2019-03-03T06:27:29.454Z,12.80
2019-03-03T06:29:55.907Z,11.38
2019-03-03T06:32:22.328Z,11.97
2019-03-03T06:34:48.746Z,12.63
2019-03-03T06:37:15.177Z,10.80
2019-03-03T06:39:41.653Z,10.95
2019-03-03T06:42:08.090Z,11.50
2019-03-03T06:44:34.531Z,11.08
2019-03-03T06:47:01.046Z,11.18
2019-03-03T06:49:27.462Z,11.40
2019-03-03T06:51:53.901Z,12.03
2019-03-03T06:54:20.338Z,11.05
2019-03-03T06:56:46.775Z,11.25
2019-03-03T06:59:13.204Z,11.70
2019-03-03T07:01:39.636Z,11.70
2019-03-03T07:04:06.055Z,11.60
2019-03-03T07:06:32.487Z,12.18
2019-03-03T07:08:58.930Z,12.75
2019-03-03T07:11:25.358Z,13.70
2019-03-03T07:13:51.786Z,12.23
2019-03-03T07:16:18.229Z,14.03
2019-03-03T07:18:44.646Z,13.03
2019-03-03T07:21:11.061Z,14.07
2019-03-03T07:23:37.491Z,14.45
2019-03-03T07:26:03.911Z,12.98
2019-03-03T07:28:33.113Z,13.88
2019-03-03T07:30:59.536Z,12.65
2019-03-03T07:33:27.874Z,13.50
2019-03-03T07:35:54.307Z,12.18
2019-03-03T07:38:20.736Z,11.63
2019-03-03T07:40:47.213Z,12.13
2019-03-03T07:43:13.697Z,12.60
2019-03-03T07:45:40.125Z,12.73
2019-03-03T07:48:06.544Z,14.00
2019-03-03T07:50:32.978Z,14.05
2019-03-03T07:52:59.414Z,13.08
2019-03-03T07:55:25.826Z,14.28
2019-03-03T07:57:52.256Z,14.07
2019-03-03T08:00:18.679Z,14.00
2019-03-03T08:02:45.110Z,15.60
2019-03-03T08:05:11.533Z,15.30
2019-03-03T08:07:37.988Z,16.42
2019-03-03T08:10:06.357Z,16.62
2019-03-03T08:12:32.864Z,19.57
2019-03-03T08:14:59.294Z,19.23
2019-03-03T08:17:25.717Z,18.45
2019-03-03T08:19:52.155Z,20.95
2019-03-03T08:22:18.595Z,18.02
2019-03-03T08:24:45.018Z,19.87
2019-03-03T08:27:11.455Z,21.02
2019-03-03T08:29:37.900Z,20.50
2019-03-03T08:32:05.359Z,20.05
2019-03-03T08:34:31.859Z,20.17
2019-03-03T08:37:00.244Z,18.57
2019-03-03T08:39:29.802Z,19.07
2019-03-03T08:41:58.139Z,18.50
2019-03-03T08:44:26.475Z,17.90
2019-03-03T08:47:07.013Z,18.27
2019-03-03T08:49:47.543Z,18.17
2019-03-03T08:52:18.992Z,17.10
2019-03-03T08:54:50.239Z,17.67
2019-03-03T08:57:18.581Z,28.15
2019-03-03T09:00:05.373Z,20.40
2019-03-03T09:02:33.714Z,17.05
2019-03-03T09:05:05.050Z,15.23
2019-03-03T09:07:50.148Z,12.78
2019-03-03T09:10:25.583Z,12.78
2019-03-03T09:12:54.141Z,12.63
2019-03-03T09:15:40.801Z,12.30
2019-03-03T09:18:21.247Z,12.60
2019-03-03T09:20:52.458Z,10.75
2019-03-03T09:23:26.782Z,10.28
2019-03-03T09:25:55.140Z,8.53
2019-03-03T09:28:26.345Z,8.08
2019-03-03T09:30:54.686Z,7.10
2019-03-03T09:33:36.787Z,7.60
2019-03-03T09:36:08.215Z,7.60
2019-03-03T09:38:36.612Z,7.33
2019-03-03T09:41:21.702Z,6.72
2019-03-03T09:43:50.040Z,4.00
2019-03-03T09:46:35.219Z,4.40
2019-03-03T09:49:18.671Z,4.10
2019-03-03T09:51:51.874Z,3.67
2019-03-03T09:54:20.292Z,3.72
2019-03-03T09:56:57.760Z,3.60
2019-03-03T09:59:43.007Z,3.87
2019-03-03T10:02:11.338Z,3.80
2019-03-03T10:04:58.089Z,3.47
2019-03-03T10:07:32.730Z,4.42
2019-03-03T10:10:03.952Z,3.83
2019-03-03T10:12:44.327Z,3.87
2019-03-03T10:15:24.603Z,3.85
2019-03-03T10:18:05.065Z,4.50
2019-03-03T10:20:36.411Z,4.12
2019-03-03T10:23:07.621Z,4.10
2019-03-03T10:25:52.459Z,4.17
2019-03-03T10:28:23.882Z,3.75
2019-03-03T10:30:52.249Z,4.50
2019-03-03T10:33:23.557Z,4.50
2019-03-03T10:36:10.322Z,8.00
2019-03-03T10:38:38.658Z,4.67
2019-03-03T10:41:22.139Z,3.90
2019-03-03T10:43:59.569Z,3.75
2019-03-03T10:46:33.810Z,3.45
2019-03-03T10:49:05.031Z,3.00
2019-03-03T10:51:33.350Z,3.30
2019-03-03T10:54:07.566Z,2.42
2019-03-03T10:56:41.862Z,2.77
2019-03-03T10:59:26.916Z,2.60
2019-03-03T11:02:12.175Z,3.22
2019-03-03T11:04:57.389Z,3.17
2019-03-03T11:07:25.711Z,3.60
2019-03-03T11:09:54.033Z,3.92
2019-03-03T11:12:28.471Z,3.60
2019-03-03T11:14:59.871Z,3.10
2019-03-03T11:17:34.127Z,4.22
2019-03-03T11:20:05.340Z,2.97
2019-03-03T11:22:39.651Z,3.85
2019-03-03T11:25:15.208Z,4.17
2019-03-03T11:27:46.613Z,3.37
2019-03-03T11:30:24.616Z,2.62
2019-03-03T11:33:09.836Z,2.30
2019-03-03T11:35:41.052Z,2.70
2019-03-03T11:38:12.334Z,2.70
2019-03-03T11:40:40.672Z,2.90
2019-03-03T11:43:09.019Z,2.50
2019-03-03T11:45:37.356Z,2.75
2019-03-03T11:48:08.566Z,2.50
2019-03-03T11:50:39.970Z,3.08
2019-03-03T11:53:14.214Z,3.05
2019-03-03T11:56:00.381Z,3.17
2019-03-03T11:58:28.782Z,2.72
2019-03-03T12:00:57.141Z,2.80
2019-03-03T12:03:26.598Z,3.47
2019-03-03T12:05:54.944Z,3.58
2019-03-03T12:08:29.226Z,3.30
2019-03-03T12:11:00.523Z,8.13
2019-03-03T12:13:45.654Z,4.75
2019-03-03T12:16:29.214Z,6.83
2019-03-03T12:19:03.669Z,5.20
2019-03-03T12:21:34.867Z,5.92
2019-03-03T12:24:20.067Z,5.00
2019-03-03T12:26:54.549Z,6.60
2019-03-03T12:29:25.776Z,5.35
2019-03-03T12:32:10.535Z,4.28
2019-03-03T12:34:51.141Z,4.08
2019-03-03T12:37:34.642Z,3.45
2019-03-03T12:40:05.621Z,3.15
2019-03-03T12:42:52.181Z,3.77
2019-03-03T12:45:23.489Z,3.20
2019-03-03T12:47:57.965Z,6.65
2019-03-03T12:50:32.325Z,3.17
2019-03-03T12:53:09.732Z,7.90
2019-03-03T12:55:54.699Z,7.05
2019-03-03T12:58:28.974Z,5.05
2019-03-03T13:01:15.731Z,12.70
2019-03-03T13:03:44.066Z,24.80
2019-03-03T13:06:24.286Z,4.95
2019-03-03T13:08:59.328Z,10.78
2019-03-03T13:11:21.446Z,5.87
2019-03-03T13:13:53.926Z,4.92
2019-03-03T13:16:25.210Z,4.67
2019-03-03T13:18:56.620Z,4.65
2019-03-03T13:21:34.154Z,4.62
2019-03-03T13:24:05.384Z,8.05
2019-03-03T13:26:50.447Z,9.78
2019-03-03T13:29:33.988Z,6.92
2019-03-03T13:32:17.500Z,5.80
2019-03-03T13:34:51.973Z,5.62
2019-03-03T13:37:32.547Z,6.80
2019-03-03T13:40:00.870Z,7.75
2019-03-03T13:42:29.211Z,7.80
2019-03-03T13:44:55.630Z,8.53
2019-03-03T13:47:22.054Z,9.28
2019-03-03T13:49:48.479Z,8.38
2019-03-03T13:52:14.923Z,8.03
2019-03-03T13:54:41.353Z,8.65
2019-03-03T13:57:07.787Z,10.05
2019-03-03T13:59:34.211Z,8.40
2019-03-03T14:02:00.662Z,9.23
2019-03-03T14:04:28.609Z,9.35
2019-03-03T14:06:55.167Z,9.10
2019-03-03T14:09:21.590Z,8.43
2019-03-03T14:11:48.058Z,8.70
2019-03-03T14:14:14.487Z,8.73
2019-03-03T14:16:40.930Z,9.45
2019-03-03T14:19:07.361Z,9.43
2019-03-03T14:21:33.803Z,9.88
2019-03-03T14:24:00.233Z,11.50
2019-03-03T14:26:26.667Z,10.88
2019-03-03T14:28:55.147Z,7.85
2019-03-03T14:31:21.430Z,10.03
2019-03-03T14:33:47.865Z,8.60
2019-03-03T14:36:14.291Z,9.45
2019-03-03T14:38:40.731Z,8.53
2019-03-03T14:41:07.160Z,9.45
2019-03-03T14:43:33.593Z,7.70
2019-03-03T14:46:00.034Z,7.30
2019-03-03T14:48:26.564Z,7.50
2019-03-03T14:50:52.999Z,7.15
2019-03-03T14:53:19.423Z,6.45
2019-03-03T14:55:45.868Z,7.40
2019-03-03T14:58:12.282Z,7.65
2019-03-03T15:00:38.735Z,6.95
2019-03-03T15:03:05.961Z,8.15
2019-03-03T15:05:32.595Z,7.58
2019-03-03T15:07:59.291Z,9.00
2019-03-03T15:10:27.826Z,11.85
2019-03-03T15:12:54.371Z,7.58
2019-03-03T15:15:34.878Z,7.47
2019-03-03T15:18:02.138Z,6.80
2019-03-03T15:20:28.584Z,7.33
2019-03-03T15:22:55.005Z,8.53
2019-03-03T15:25:21.445Z,10.45
2019-03-03T15:27:47.879Z,13.55
2019-03-03T15:30:20.634Z,7.42
2019-03-03T15:32:47.081Z,8.05
2019-03-03T15:35:14.685Z,7.53
2019-03-03T15:37:41.465Z,9.15
2019-03-03T15:40:10.935Z,9.98
2019-03-03T15:42:37.470Z,9.23
2019-03-03T15:45:05.790Z,9.00
2019-03-03T15:47:32.253Z,10.25
2019-03-03T15:49:58.679Z,10.20
2019-03-03T15:52:25.099Z,11.20
2019-03-03T15:54:51.550Z,11.00
2019-03-03T15:57:17.978Z,10.63
2019-03-03T15:59:44.423Z,10.28
2019-03-03T16:02:14.502Z,11.57
2019-03-03T16:04:40.931Z,9.85
2019-03-03T16:07:07.364Z,11.68
2019-03-03T16:09:33.829Z,12.10
2019-03-03T16:12:00.254Z,11.28
2019-03-03T16:14:26.691Z,12.30
2019-03-03T16:16:53.145Z,13.85
2019-03-03T16:19:19.771Z,13.58
2019-03-03T16:21:46.270Z,12.47
2019-03-03T16:24:12.702Z,15.55
2019-03-03T16:26:39.214Z,13.13
2019-03-03T16:29:05.660Z,22.65
2019-03-03T16:31:32.094Z,14.58
2019-03-03T16:33:58.527Z,16.12
2019-03-03T16:36:24.946Z,13.25
2019-03-03T16:38:54.267Z,14.00
2019-03-03T16:41:20.711Z,13.60
2019-03-03T16:43:47.197Z,11.45
2019-03-03T16:46:15.714Z,14.38
2019-03-03T16:48:42.028Z,12.82
2019-03-03T16:51:08.459Z,13.22
2019-03-03T16:53:34.906Z,13.65
2019-03-03T16:56:01.338Z,14.58
2019-03-03T16:58:27.757Z,14.55
2019-03-03T17:00:54.186Z,13.65
2019-03-03T17:03:20.731Z,13.32
2019-03-03T17:05:47.165Z,13.00
2019-03-03T17:08:13.591Z,13.90
2019-03-03T17:10:40.063Z,14.35
2019-03-03T17:13:06.482Z,14.60
2019-03-03T17:15:32.920Z,16.10
2019-03-03T17:17:59.378Z,14.65
2019-03-03T17:20:25.817Z,14.65
2019-03-03T17:22:55.662Z,13.78
2019-03-03T17:25:27.015Z,15.50
2019-03-03T17:27:53.432Z,17.55
2019-03-03T17:30:20.869Z,18.05
2019-03-03T17:32:47.305Z,20.68
2019-03-03T17:35:13.727Z,17.80
2019-03-03T17:37:40.271Z,19.60
2019-03-03T17:40:08.390Z,18.87
2019-03-03T17:42:34.833Z,15.48
2019-03-03T17:45:21.126Z,15.58
2019-03-03T17:47:47.682Z,16.23
2019-03-03T17:50:15.107Z,13.95
2019-03-03T17:52:41.537Z,13.55
2019-03-03T17:55:08.488Z,13.65
2019-03-03T17:57:34.923Z,12.30
2019-03-03T18:00:01.774Z,13.28
2019-03-03T18:02:28.197Z,14.70
2019-03-03T18:04:54.634Z,14.70
2019-03-03T18:07:21.063Z,14.20
2019-03-03T18:09:47.489Z,13.62
2019-03-03T18:12:13.919Z,16.45
2019-03-03T18:14:40.356Z,15.20
2019-03-03T18:17:08.988Z,14.63
2019-03-03T18:19:35.431Z,14.93
2019-03-03T18:22:02.971Z,14.78
2019-03-03T18:24:32.519Z,13.40
2019-03-03T18:26:58.947Z,14.13
2019-03-03T18:29:25.382Z,13.13
2019-03-03T18:31:51.807Z,13.72
2019-03-03T18:34:18.246Z,13.83
2019-03-03T18:36:44.675Z,12.47
2019-03-03T18:39:11.115Z,12.37
2019-03-03T18:41:37.533Z,12.13
2019-03-03T18:44:03.964Z,12.93
2019-03-03T18:46:30.394Z,11.63
2019-03-03T18:48:58.756Z,11.78
2019-03-03T18:51:25.214Z,13.05
2019-03-03T18:53:51.663Z,12.30
2019-03-03T18:56:18.090Z,14.18
2019-03-03T18:58:44.527Z,41.90
2019-03-03T19:01:10.951Z,29.85
2019-03-03T19:03:37.391Z,13.53
2019-03-03T19:06:03.837Z,31.62
2019-03-03T19:08:30.479Z,17.07
2019-03-03T19:11:01.111Z,21.65
2019-03-03T19:13:27.555Z,18.87
2019-03-03T19:15:53.975Z,11.83
2019-03-03T19:18:20.403Z,10.40
2019-03-03T19:20:46.851Z,11.18
2019-03-03T19:23:13.349Z,11.30
2019-03-03T19:25:39.807Z,9.95
2019-03-03T19:28:06.243Z,10.68
2019-03-03T19:30:32.663Z,9.30
2019-03-03T19:33:01.026Z,9.78
2019-03-03T19:35:27.463Z,9.15
2019-03-03T19:37:53.904Z,9.43
2019-03-03T19:40:20.346Z,8.15
2019-03-03T19:42:46.776Z,8.55
2019-03-03T19:45:21.300Z,8.48
2019-03-03T19:47:47.731Z,7.72
2019-03-03T19:50:14.270Z,8.58
2019-03-03T19:52:40.712Z,9.55
2019-03-03T19:55:08.723Z,8.55
2019-03-03T19:57:35.147Z,9.05
2019-03-03T20:00:01.695Z,8.20
2019-03-03T20:02:29.153Z,8.40
2019-03-03T20:04:55.669Z,8.38
2019-03-03T20:07:22.099Z,9.85
2019-03-03T20:09:48.625Z,9.33
2019-03-03T20:12:15.069Z,8.68
2019-03-03T20:14:42.270Z,8.85
2019-03-03T20:17:08.710Z,8.75
2019-03-03T20:19:35.135Z,9.65
2019-03-03T20:22:01.590Z,8.98
2019-03-03T20:24:28.015Z,9.58
2019-03-03T20:26:54.443Z,7.97
2019-03-03T20:29:20.874Z,8.73
2019-03-03T20:31:47.292Z,8.03
2019-03-03T20:34:13.750Z,8.13
2019-03-03T20:36:40.256Z,9.48
2019-03-03T20:39:06.684Z,8.55
2019-03-03T20:41:33.121Z,9.40
2019-03-03T20:43:59.538Z,9.90
2019-03-03T20:46:26.002Z,9.15
2019-03-03T20:48:52.447Z,8.65
2019-03-03T20:51:18.907Z,9.05
2019-03-03T20:53:45.333Z,10.00
2019-03-03T20:56:11.775Z,8.35
2019-03-03T20:58:38.202Z,18.10
2019-03-03T21:01:04.622Z,12.03
2019-03-03T21:03:31.060Z,8.13
2019-03-03T21:05:57.474Z,8.85
2019-03-03T21:08:23.920Z,14.47
2019-03-03T21:10:50.365Z,14.90
2019-03-03T21:13:16.790Z,15.70
2019-03-03T21:15:43.218Z,9.40
2019-03-03T21:18:09.641Z,23.83
2019-03-03T21:20:36.068Z,43.00
2019-03-03T21:23:02.602Z,17.75
2019-03-03T21:25:29.039Z,25.15
2019-03-03T21:27:55.490Z,44.23
2019-03-03T21:30:22.619Z,14.18
2019-03-03T21:32:49.076Z,26.00
2019-03-03T21:35:17.596Z,15.00
2019-03-03T21:37:44.278Z,23.10
2019-03-03T21:40:11.802Z,10.30
2019-03-03T21:42:44.394Z,11.90
2019-03-03T21:45:12.730Z,9.13
2019-03-03T21:47:39.174Z,20.77
2019-03-03T21:50:10.230Z,22.90
2019-03-03T21:52:38.755Z,16.10
2019-03-03T21:55:06.199Z,14.60
2019-03-03T21:57:33.746Z,9.53
2019-03-03T22:00:00.347Z,18.60
2019-03-03T22:02:26.833Z,27.80
2019-03-03T22:04:53.263Z,12.28
2019-03-03T22:07:19.802Z,10.45
2019-03-03T22:09:46.313Z,10.53
2019-03-03T22:12:13.016Z,8.15
2019-03-03T22:14:39.446Z,22.90
2019-03-03T22:17:05.882Z,11.38
2019-03-03T22:19:32.339Z,9.13
2019-03-03T22:21:58.770Z,12.70
2019-03-03T22:24:25.205Z,9.75
2019-03-03T22:26:51.636Z,8.25
2019-03-03T22:29:18.068Z,9.50
2019-03-03T22:31:44.502Z,17.45
2019-03-03T22:34:10.966Z,18.90
2019-03-03T22:36:37.407Z,24.63
2019-03-03T22:39:04.340Z,19.05
2019-03-03T22:41:30.775Z,17.98
2019-03-03T22:43:57.190Z,21.33
2019-03-03T22:46:23.630Z,33.25
2019-03-03T22:48:50.525Z,10.45
2019-03-03T22:51:17.220Z,11.68
2019-03-03T22:53:44.714Z,6.53
2019-03-03T22:56:21.582Z,10.23
2019-03-03T22:58:48.021Z,9.38
2019-03-03T23:01:16.451Z,11.00
2019-03-03T23:03:44.797Z,23.98
2019-03-03T23:06:23.236Z,10.82
2019-03-03T23:09:09.959Z,6.75
2019-03-03T23:11:44.342Z,8.45
2019-03-03T23:14:27.933Z,13.10
2019-03-03T23:17:13.236Z,14.05
2019-03-03T23:19:56.961Z,8.10
2019-03-03T23:22:33.687Z,7.37
2019-03-03T23:25:17.362Z,12.25
2019-03-03T23:27:43.791Z,16.97
2019-03-03T23:30:10.217Z,8.53
2019-03-03T23:32:36.638Z,10.43
2019-03-03T23:35:03.470Z,17.12
2019-03-03T23:37:29.916Z,10.08
2019-03-03T23:39:56.462Z,14.25
2019-03-03T23:42:22.887Z,8.53
2019-03-03T23:44:49.319Z,12.53
2019-03-03T23:47:15.755Z,16.87
2019-03-03T23:49:42.192Z,10.90
2019-03-03T23:52:12.418Z,10.20
2019-03-03T23:54:38.882Z,9.43
2019-03-03T23:57:05.323Z,14.98
2019-03-03T23:59:31.764Z,13.53
